Jupiter, FL (33469)

1:26 PM EDT on March 29, 2017 (GMT -0400)
Jupiter | | Change Station

Elev 0 ft 26.98 °N, 80.09 °W | Updated 1 minute ago

Clear
Clear
83.7 °F
Feels Like 88 °F
N
3.1
Wind Variable Wind from SE
Gusts 8.7 mph

Today
High -- | Low -- °F
--% Chance of Precip.
Yesterday
High -- | Low -- °F
Precip. -- in
Pressure 30.07 in
Visibility 7.0 miles
Clouds Scattered Clouds 4000 ft
Heat Index 88 °F
Dew Point 70 °F
Humidity 64%
Rainfall 0.00 in
Snow Depth Not available.
7:14 AM 7:36 PM
Waxing Crescent, 4% visible
METAR KSUA 291647Z 09008KT 7SM SCT040 30/17 A3007
Pressure 30.07 in
Visibility 7.0 miles
Clouds Scattered Clouds 4000 ft
Heat Index 88 °F
Dew Point 70 °F
Humidity 64%
Rainfall 0.00 in
Snow Depth Not available.
7:14 AM 7:36 PM
Waxing Crescent, 4% visible
METAR KSUA 291647Z 09008KT 7SM SCT040 30/17 A3007

Get Severe Weather Alerts

Thanks for signing up!

Be on the lookout for a verification email in your inbox.

You'll start receiving the daily forecast at 8 AM.

×

10-Day Weather Forecast

Almanac

Astronomy

Mar. 29, 2017 Rise Set
Actual Time
Civil Twilight
Nautical Twilight
Astronomical Twilight
Moon
Length of Visible Light
Length of Day
Tomorrow will be .
, % of the Moon is Illuminated

Today's Extremes

State Highs State Lows

Community

WunderPhotos

Upload Photos

1,962,540 photos uploaded!

WunderBlog® & News

Nearby

Air Quality

  Air Quality AQ Index Pollutant
Not available.

Snow Depth

Station Depth Elevation

Earthquake Activity

City Distance Mag. Time & Date
Minimum magnitude displayed is 2.5.

Earthquake Activity

City Distance Mag. Time & Date
Minimum magnitude displayed is 2.5.

Coastal Water Temperatures

Place Temperature

Stations

Nearby Weather Stations

Station Location Temp. Windchill Dew Point Humidity Wind Precip. Elev Updated Type
                   

Watches & Warnings

There are currently no watches in effect.